Time;durP1;ratioP1;P1;durP2;ratioP2;P2;SDS_P1;SDS_P2;PMS_P1;PMS_P2;Temp;Humidity;BMP_temperature;BMP_pressure;BME280_temperature;BME280_humidity;BME280_pressure;Samples;Min_cycle;Max_cycle;Signal;HPM_P1;HPM_P2
2021/04/05 00:00:28;;;;;;;18.84;11.69;;;;;;;2.72;70.45;98974.15;313223;119;2388998;-73
2021/04/05 00:01:36;;;;;;;16.90;9.73;;;;;;;2.67;70.75;98971.17;336158;119;1961985;-73
2021/04/05 00:02:42;;;;;;;16.09;9.47;;;;;;;2.70;70.75;98970.81;293933;121;2777031;-73
2021/04/05 00:03:48;;;;;;;15.35;9.39;;;;;;;2.73;70.67;98970.50;334374;119;1961922;-74
2021/04/05 00:04:53;;;;;;;18.63;9.63;;;;;;;2.77;70.66;98972.63;328573;123;1965047;-72
2021/04/05 00:05:59;;;;;;;17.91;10.50;;;;;;;2.84;70.66;98973.60;337309;119;1962052;-73
2021/04/05 00:07:05;;;;;;;16.77;10.34;;;;;;;2.92;70.45;98977.25;328640;121;1963969;-73
2021/04/05 00:08:11;;;;;;;16.16;10.63;;;;;;;2.97;70.32;98977.56;295824;121;2625877;-73
2021/04/05 00:09:16;;;;;;;17.15;9.30;;;;;;;3.01;70.20;98974.34;299786;121;1962968;-73
2021/04/05 00:10:29;;;;;;;17.76;8.74;;;;;;;3.06;70.06;98976.50;329168;123;1962046;-73
2021/04/05 00:11:35;;;;;;;16.73;10.09;;;;;;;3.12;69.92;98974.97;325698;121;1961949;-73
2021/04/05 00:12:40;;;;;;;17.93;10.57;;;;;;;3.20;69.85;98972.25;315337;119;2450995;-73
2021/04/05 00:13:46;;;;;;;16.63;9.80;;;;;;;3.22;69.33;98975.58;328415;117;1963075;-73
2021/04/05 00:14:51;;;;;;;16.42;9.29;;;;;;;3.22;69.42;98970.24;343262;117;1961973;-73
2021/04/05 00:15:57;;;;;;;18.27;9.94;;;;;;;3.23;69.31;98969.25;340474;119;1961955;-74
2021/04/05 00:17:03;;;;;;;18.56;10.66;;;;;;;3.16;69.17;98969.11;340754;119;1962076;-73
2021/04/05 00:18:10;;;;;;;18.06;9.97;;;;;;;3.10;69.39;98967.16;304085;117;2009277;-73
2021/04/05 00:19:16;;;;;;;14.57;9.17;;;;;;;3.05;69.47;98964.17;340709;119;1961960;-72
2021/04/05 00:20:25;;;;;;;15.87;9.28;;;;;;;3.00;69.34;98975.36;340169;117;1961988;-73
2021/04/05 00:21:32;;;;;;;21.19;11.76;;;;;;;2.95;69.55;98967.05;340516;117;1962029;-73
2021/04/05 00:22:38;;;;;;;18.58;10.44;;;;;;;2.90;69.31;98964.07;313367;119;2230038;-73
2021/04/05 00:23:43;;;;;;;16.83;10.30;;;;;;;2.84;69.44;98962.94;340510;117;1963056;-73
2021/04/05 00:24:48;;;;;;;19.06;11.63;;;;;;;2.79;69.53;98961.80;339937;117;1961983;-73
2021/04/05 00:25:55;;;;;;;18.80;11.46;;;;;;;2.74;69.87;98961.48;340609;117;1962058;-72
2021/04/05 00:27:01;;;;;;;21.81;12.07;;;;;;;2.65;70.14;98952.69;309684;119;2599953;-73
2021/04/05 00:28:06;;;;;;;18.33;10.67;;;;;;;2.61;70.42;98957.52;338943;117;1965050;-73
2021/04/05 00:29:13;;;;;;;15.61;9.40;;;;;;;2.58;70.60;98957.04;343936;116;1961953;-72
2021/04/05 00:30:23;;;;;;;17.21;8.89;;;;;;;2.57;70.43;98955.39;341663;118;1962049;-73
2021/04/05 00:31:28;;;;;;;14.72;9.41;;;;;;;2.61;70.51;98951.36;343723;116;1961974;-73
2021/04/05 00:32:35;;;;;;;13.68;8.11;;;;;;;2.62;70.40;98947.70;325141;118;2949031;-73
2021/04/05 00:33:40;;;;;;;14.53;7.77;;;;;;;2.66;70.20;98951.67;318541;118;1962076;-74
2021/04/05 00:34:45;;;;;;;14.86;8.42;;;;;;;2.72;70.07;98950.97;334885;116;1965079;-73
2021/04/05 00:35:50;;;;;;;15.98;9.06;;;;;;;2.79;69.82;98953.80;345636;116;1962062;-74
2021/04/05 00:36:56;;;;;;;17.69;9.59;;;;;;;2.85;69.69;98950.42;337659;118;1961958;-73
2021/04/05 00:38:04;;;;;;;16.16;10.41;;;;;;;2.89;69.63;98942.92;339559;118;1961895;-73
2021/04/05 00:39:09;;;;;;;16.07;9.76;;;;;;;2.90;69.47;98950.73;338336;120;1962093;-72
2021/04/05 00:40:20;;;;;;;17.77;10.18;;;;;;;2.90;69.35;98949.91;339225;118;1961974;-73
2021/04/05 00:41:27;;;;;;;16.61;9.23;;;;;;;2.84;69.28;98952.27;338643;120;1961907;-73
2021/04/05 00:42:32;;;;;;;16.31;9.97;;;;;;;2.80;69.26;98948.27;324312;120;1962039;-73
2021/04/05 00:43:40;;;;;;;17.11;9.78;;;;;;;2.73;69.42;98943.83;338870;118;1963903;-73
2021/04/05 00:44:46;;;;;;;19.48;10.34;;;;;;;2.64;69.38;98941.17;319744;120;2226970;-73
2021/04/05 00:45:52;;;;;;;16.49;10.01;;;;;;;2.54;69.70;98948.56;356830;109;1961747;-73
2021/04/05 00:46:59;;;;;;;19.08;10.39;;;;;;;2.47;70.13;98944.09;361538;110;1961909;-74
2021/04/05 00:48:06;;;;;;;15.16;8.90;;;;;;;2.42;69.93;98942.76;312723;111;2827931;-73
2021/04/05 00:49:12;;;;;;;15.42;8.49;;;;;;;2.36;69.96;98940.78;353215;112;1962941;-73
2021/04/05 00:50:25;;;;;;;16.33;9.26;;;;;;;2.32;70.21;98942.11;357538;113;1964924;-73
2021/04/05 00:51:30;;;;;;;16.85;9.73;;;;;;;2.33;70.14;98948.27;357135;113;1962032;-72
2021/04/05 00:52:37;;;;;;;16.74;9.57;;;;;;;2.30;70.33;98940.63;358444;113;1964005;-73
2021/04/05 00:53:45;;;;;;;14.22;7.87;;;;;;;2.29;70.30;98944.30;356708;111;1962057;-73
2021/04/05 00:54:53;;;;;;;12.38;7.84;;;;;;;2.31;70.32;98948.46;354648;113;1964095;-73
2021/04/05 00:55:59;;;;;;;13.86;9.06;;;;;;;2.35;70.11;98941.77;344003;113;1961983;-73
2021/04/05 00:57:05;;;;;;;12.68;7.57;;;;;;;2.41;69.91;98943.77;358028;111;1965966;-72
2021/04/05 00:58:10;;;;;;;13.83;8.06;;;;;;;2.48;69.85;98946.56;357744;113;1961929;-72
2021/04/05 00:59:16;;;;;;;12.89;7.28;;;;;;;2.53;69.76;98938.06;354863;111;1961832;-73
2021/04/05 01:00:32;;;;;;;14.49;8.51;;;;;;;2.56;69.66;98935.05;309785;113;2173031;-74
2021/04/05 01:01:37;;;;;;;14.00;8.11;;;;;;;2.55;69.62;98944.06;340001;113;1963021;-73
2021/04/05 01:02:43;;;;;;;16.46;9.20;;;;;;;2.51;69.55;98935.55;352353;114;1962081;-74
2021/04/05 01:03:50;;;;;;;14.23;8.77;;;;;;;2.46;69.61;98939.74;354095;112;1961920;-73
2021/04/05 01:04:55;;;;;;;17.40;9.33;;;;;;;2.42;69.66;98944.59;343599;113;2208933;-73
2021/04/05 01:06:15;;;;;;;16.99;9.18;;;;;;;2.36;69.70;98938.12;330976;113;1962993;-73
2021/04/05 01:07:21;;;;;;;16.59;8.08;;;;;;;2.29;69.80;98953.12;357901;112;1961989;-73
2021/04/05 01:08:27;;;;;;;17.51;8.86;;;;;;;2.25;69.82;98933.16;355737;113;1961986;-73
2021/04/05 01:09:32;;;;;;;13.41;7.73;;;;;;;2.21;69.69;98934.49;357774;113;1961818;-72
2021/04/05 01:10:38;;;;;;;16.61;9.25;;;;;;;2.18;69.83;98937.50;314511;112;2182544;-73
2021/04/05 01:11:44;;;;;;;16.36;9.61;;;;;;;2.13;69.97;98932.67;361407;112;1960981;-72
2021/04/05 01:12:49;;;;;;;15.66;9.23;;;;;;;2.09;70.37;98927.84;361039;112;1960727;-73
2021/04/05 01:13:55;;;;;;;14.71;8.14;;;;;;;2.04;70.41;98936.38;362239;112;1960894;-73
2021/04/05 01:15:01;;;;;;;13.95;7.92;;;;;;;2.01;70.56;98938.52;359695;112;1962039;-72
2021/04/05 01:16:07;;;;;;;17.13;8.01;;;;;;;1.99;70.55;98933.37;321656;112;2016211;-73
2021/04/05 01:17:13;;;;;;;13.37;7.46;;;;;;;2.03;70.61;98933.86;361085;112;1964038;-73
2021/04/05 01:18:18;;;;;;;14.08;8.31;;;;;;;2.09;70.55;98927.84;354979;111;1963977;-73
2021/04/05 01:19:25;;;;;;;15.41;7.78;;;;;;;2.17;70.49;98939.34;360472;112;1962064;-73
2021/04/05 01:20:31;;;;;;;14.23;7.45;;;;;;;2.25;70.32;98925.17;333029;112;2450951;-72
2021/04/05 01:21:38;;;;;;;12.44;6.67;;;;;;;2.35;69.95;98933.77;359610;112;1963068;-73
2021/04/05 01:22:46;;;;;;;13.81;7.26;;;;;;;2.40;69.68;98926.09;359357;112;1961938;-74
2021/04/05 01:23:52;;;;;;;14.76;7.59;;;;;;;2.46;69.61;98929.94;361351;112;1962014;-73
2021/04/05 01:24:57;;;;;;;13.63;8.68;;;;;;;2.50;69.64;98927.75;355541;112;1962091;-73
2021/04/05 01:26:03;;;;;;;14.54;8.43;;;;;;;2.50;69.44;98927.75;358695;113;1961968;-73
2021/04/05 01:27:09;;;;;;;13.18;8.04;;;;;;;2.48;69.40;98927.91;337109;111;2233958;-72
2021/04/05 01:28:15;;;;;;;18.80;9.02;;;;;;;2.42;69.41;98926.77;355847;113;1961998;-73
2021/04/05 01:29:20;;;;;;;13.58;8.20;;;;;;;2.38;69.44;98928.13;356171;113;1961980;-73
2021/04/05 01:30:32;;;;;;;13.81;8.81;;;;;;;2.32;69.40;98926.13;357939;113;1961991;-72
2021/04/05 01:31:38;;;;;;;14.59;8.61;;;;;;;2.26;69.54;98921.48;357697;113;1962002;-73
2021/04/05 01:32:44;;;;;;;15.81;8.78;;;;;;;2.19;69.74;98923.98;360943;112;1962110;-73
2021/04/05 01:33:51;;;;;;;14.42;8.87;;;;;;;2.14;69.95;98921.03;357834;110;1960594;-73
2021/04/05 01:34:56;;;;;;;15.24;8.13;;;;;;;2.10;69.91;98924.20;331857;114;1963931;-72
2021/04/05 01:36:05;;;;;;;14.92;9.37;;;;;;;2.05;69.86;98918.55;348632;114;1962059;-73
2021/04/05 01:37:11;;;;;;;14.78;8.84;;;;;;;2.01;69.97;98919.88;343646;115;1961939;-74
2021/04/05 01:38:19;;;;;;;17.16;10.42;;;;;;;1.94;70.14;98914.41;351658;113;1962014;-74
2021/04/05 01:39:26;;;;;;;14.44;8.23;;;;;;;1.90;70.47;98913.06;330449;116;1963042;-73
2021/04/05 01:40:38;;;;;;;14.78;8.71;;;;;;;1.88;70.64;98915.06;344290;116;1963043;-73
2021/04/05 01:41:44;;;;;;;13.79;7.55;;;;;;;1.87;70.51;98916.90;310621;114;2035435;-73
2021/04/05 01:42:50;;;;;;;11.88;7.08;;;;;;;1.89;70.56;98908.75;326687;114;1962028;-73
2021/04/05 01:43:55;;;;;;;12.84;6.89;;;;;;;1.93;70.64;98908.25;349019;114;1961920;-73
2021/04/05 01:45:01;;;;;;;10.67;6.31;;;;;;;2.00;70.56;98907.57;343039;116;1962998;-73
2021/04/05 01:46:09;;;;;;;12.99;7.53;;;;;;;2.06;70.51;98904.22;343958;116;1961910;-72
2021/04/05 01:47:15;;;;;;;12.17;6.31;;;;;;;2.12;70.39;98909.71;352325;113;1961916;-73
2021/04/05 01:48:23;;;;;;;13.57;7.08;;;;;;;2.20;70.39;98906.20;348555;114;1961952;-73
2021/04/05 01:49:29;;;;;;;12.93;7.02;;;;;;;2.26;70.14;98910.00;344914;116;1961990;-73
2021/04/05 01:50:38;;;;;;;12.23;6.75;;;;;;;2.32;70.07;98903.98;336110;113;2939931;-73
2021/04/05 01:51:43;;;;;;;15.19;7.70;;;;;;;2.36;69.71;98908.80;350236;114;1962006;-73
2021/04/05 01:52:48;;;;;;;13.01;7.34;;;;;;;2.41;69.83;98903.79;345381;116;1962078;-73
2021/04/05 01:53:56;;;;;;;13.67;7.37;;;;;;;2.45;69.71;98904.27;344649;115;1963981;-73
2021/04/05 01:55:02;;;;;;;14.92;8.46;;;;;;;2.50;69.64;98899.25;334089;112;1960846;-72
2021/04/05 01:56:11;;;;;;;15.71;8.20;;;;;;;2.49;69.63;98902.93;355930;112;1962012;-73
2021/04/05 01:57:17;;;;;;;13.23;7.56;;;;;;;2.46;69.62;98899.76;357390;111;1963046;-73
2021/04/05 01:58:22;;;;;;;14.17;9.27;;;;;;;2.39;69.54;98902.30;358451;111;1961869;-72
2021/04/05 01:59:28;;;;;;;14.04;8.07;;;;;;;2.33;69.58;98903.82;358068;111;1961977;-73
2021/04/05 02:00:39;;;;;;;16.07;8.62;;;;;;;2.28;69.60;98900.84;358335;111;1961967;-73
2021/04/05 02:01:47;;;;;;;18.32;9.07;;;;;;;2.21;69.65;98894.52;358015;111;1962014;-72
2021/04/05 02:02:55;;;;;;;17.40;10.07;;;;;;;2.15;69.74;98909.36;323222;111;2636021;-73
2021/04/05 02:04:03;;;;;;;15.61;8.76;;;;;;;2.10;69.82;98900.22;355727;112;1964940;-73
2021/04/05 02:05:09;;;;;;;16.78;9.43;;;;;;;2.04;69.95;98899.08;349598;115;1962007;-73
2021/04/05 02:06:23;;;;;;;15.26;9.29;;;;;;;1.98;70.16;98899.73;331694;113;2361020;-72
2021/04/05 02:07:29;;;;;;;14.22;8.58;;;;;;;1.96;70.05;98899.09;357580;111;1962008;-72
2021/04/05 02:08:37;;;;;;;18.68;9.88;;;;;;;1.92;70.16;98903.91;358006;111;1961969;-72
2021/04/05 02:09:43;;;;;;;14.88;8.36;;;;;;;1.88;71.09;98907.92;357028;111;1962073;-73
2021/04/05 02:10:52;;;;;;;15.72;7.81;;;;;;;1.92;70.80;98898.58;358690;111;1964985;-73
2021/04/05 02:11:58;;;;;;;12.51;7.22;;;;;;;1.96;70.67;98907.09;357211;111;1962908;-73
2021/04/05 02:13:04;;;;;;;13.97;7.82;;;;;;;2.04;70.53;98898.22;358377;111;1963944;-73
2021/04/05 02:14:10;;;;;;;12.07;7.22;;;;;;;2.08;70.43;98900.38;321514;111;2650962;-73
2021/04/05 02:15:17;;;;;;;14.22;7.86;;;;;;;2.13;70.29;98899.88;357915;111;1962026;-72
2021/04/05 02:16:25;;;;;;;14.61;8.23;;;;;;;2.20;70.12;98900.86;357185;111;1961994;-73
2021/04/05 02:17:32;;;;;;;14.68;8.77;;;;;;;2.22;69.91;98901.50;357812;111;1962007;-73
2021/04/05 02:18:38;;;;;;;15.01;8.26;;;;;;;2.29;69.94;98904.33;357451;111;1962961;-72
2021/04/05 02:19:45;;;;;;;13.80;8.38;;;;;;;2.36;69.81;98897.31;347927;111;1961996;-73
2021/04/05 02:20:52;;;;;;;14.67;8.29;;;;;;;2.37;69.62;98902.45;356281;111;1962033;-72
2021/04/05 02:21:57;;;;;;;15.41;9.35;;;;;;;2.34;69.57;98894.81;357207;111;1963014;-72
2021/04/05 02:23:03;;;;;;;17.65;9.55;;;;;;;2.27;69.59;98901.82;333743;111;2452026;-72
2021/04/05 02:24:09;;;;;;;13.77;9.33;;;;;;;2.20;69.77;98898.20;334828;112;1961978;-73
2021/04/05 02:25:18;;;;;;;14.82;9.08;;;;;;;2.15;69.96;98900.55;354911;112;1961934;-72
2021/04/05 02:26:26;;;;;;;19.02;12.62;;;;;;;2.07;70.05;98901.39;355558;112;1961957;-72
2021/04/05 02:27:33;;;;;;;17.79;11.72;;;;;;;2.05;69.91;98898.06;319624;114;1990249;-72
2021/04/05 02:28:41;;;;;;;20.96;12.23;;;;;;;1.99;70.16;98898.75;356231;112;1961987;-72
2021/04/05 02:29:46;;;;;;;19.73;11.16;;;;;;;1.98;70.15;98902.39;341488;114;1962004;-73
2021/04/05 02:30:53;;;;;;;15.79;9.61;;;;;;;1.97;70.13;98908.73;354365;112;1964014;-72
2021/04/05 02:31:59;;;;;;;17.86;10.10;;;;;;;1.96;70.20;98901.76;353221;112;1961934;-72
2021/04/05 02:33:05;;;;;;;18.23;10.28;;;;;;;1.97;70.32;98898.91;316440;112;2698968;-74
2021/04/05 02:34:12;;;;;;;15.51;9.29;;;;;;;2.02;70.22;98894.92;358103;111;1963033;-72
2021/04/05 02:35:19;;;;;;;16.34;9.94;;;;;;;2.07;70.20;98898.73;357182;111;1961941;-72
2021/04/05 02:36:29;;;;;;;16.96;9.92;;;;;;;2.13;70.13;98894.55;335995;111;2345914;-73
2021/04/05 02:37:37;;;;;;;18.24;9.46;;;;;;;2.18;70.04;98887.70;358328;111;1963956;-73
2021/04/05 02:38:50;;;;;;;13.91;8.40;;;;;;;2.23;69.94;98895.19;355267;112;1962960;-73
2021/04/05 02:39:55;;;;;;;14.84;8.78;;;;;;;2.29;69.83;98885.67;350833;113;1961968;-72
2021/04/05 02:41:00;;;;;;;16.42;9.53;;;;;;;2.32;69.76;98886.15;349480;113;1962027;-72
2021/04/05 02:42:08;;;;;;;15.07;9.47;;;;;;;2.35;69.66;98890.30;352989;113;1964041;-71
2021/04/05 02:43:14;;;;;;;16.01;10.14;;;;;;;2.32;69.54;98890.66;321204;113;1961988;-72
2021/04/05 02:44:20;;;;;;;17.03;10.21;;;;;;;2.27;69.52;98888.50;355011;112;1961962;-73
2021/04/05 02:45:27;;;;;;;20.06;11.75;;;;;;;2.19;69.61;98881.36;352566;115;1961936;-72
2021/04/05 02:46:37;;;;;;;16.41;9.62;;;;;;;2.12;69.69;98880.41;351993;113;1961903;-73
2021/04/05 02:47:44;;;;;;;17.54;10.52;;;;;;;2.06;69.71;98878.40;352201;113;1961959;-72
2021/04/05 02:48:51;;;;;;;18.76;10.13;;;;;;;2.03;69.81;98877.92;357783;111;1961981;-72
2021/04/05 02:49:57;;;;;;;18.37;10.54;;;;;;;1.94;70.08;98882.45;358365;111;1961993;-70
2021/04/05 02:51:05;;;;;;;17.53;9.56;;;;;;;1.87;70.14;98884.94;356473;111;1961983;-72
2021/04/05 02:52:10;;;;;;;15.50;9.48;;;;;;;1.84;70.34;98887.95;326312;112;1964008;-72
2021/04/05 02:53:16;;;;;;;15.39;8.96;;;;;;;1.82;70.29;98887.28;355357;112;1961995;-72
2021/04/05 02:54:22;;;;;;;17.17;8.84;;;;;;;1.83;70.33;98888.95;352627;113;1961851;-72
2021/04/05 02:55:28;;;;;;;15.61;9.07;;;;;;;1.88;70.42;98888.43;349768;113;1963999;-72
2021/04/05 02:56:37;;;;;;;15.17;9.06;;;;;;;1.92;70.38;98893.26;318068;113;1962942;-72
2021/04/05 02:57:44;;;;;;;15.69;9.06;;;;;;;1.96;70.34;98886.61;351763;113;1961938;-72
2021/04/05 02:58:52;;;;;;;15.22;8.48;;;;;;;1.85;70.30;98859.48;352004;113;1961947;-72
2021/04/05 02:59:58;;;;;;;14.43;8.82;;;;;;;2.05;70.29;98886.58;343799;117;1964041;-72
2021/04/05 03:01:04;;;;;;;13.34;8.13;;;;;;;2.10;70.15;98884.23;329115;113;1961956;-72
2021/04/05 03:02:10;;;;;;;14.61;7.77;;;;;;;2.17;70.19;98891.38;351274;113;1962001;-72
2021/04/05 03:03:18;;;;;;;14.50;9.11;;;;;;;2.23;70.06;98886.38;346571;115;1962014;-73
2021/04/05 03:04:23;;;;;;;14.59;8.82;;;;;;;2.29;69.91;98888.34;337286;113;1964126;-72
2021/04/05 03:05:31;;;;;;;14.76;8.85;;;;;;;2.31;69.73;98884.50;351358;113;1962003;-73
2021/04/05 03:06:39;;;;;;;16.36;10.37;;;;;;;2.36;69.69;98882.15;351867;112;1961946;-72
2021/04/05 03:07:45;;;;;;;17.67;10.31;;;;;;;2.35;69.51;98888.47;351553;114;1962024;-72
2021/04/05 03:08:51;;;;;;;17.05;10.29;;;;;;;2.34;69.48;98878.00;352198;113;1962016;-72
2021/04/05 03:09:57;;;;;;;18.34;11.03;;;;;;;2.27;69.39;98877.02;343348;113;1961789;-72
2021/04/05 03:11:04;;;;;;;17.67;10.38;;;;;;;2.19;69.56;98883.20;351325;113;1963871;-72
2021/04/05 03:12:11;;;;;;;17.38;10.37;;;;;;;2.12;69.58;98871.59;327014;113;2460001;-72
2021/04/05 03:13:17;;;;;;;18.69;11.66;;;;;;;2.04;69.66;98869.77;353087;113;1962035;-72
2021/04/05 03:14:24;;;;;;;18.83;12.14;;;;;;;1.98;69.81;98871.29;347567;115;1961925;-73
2021/04/05 03:15:30;;;;;;;21.81;13.12;;;;;;;1.91;69.88;98866.81;314324;113;2042705;-71
2021/04/05 03:16:39;;;;;;;20.64;12.95;;;;;;;1.83;70.01;98872.98;351701;113;1960999;-72
2021/04/05 03:17:44;;;;;;;19.21;11.74;;;;;;;1.78;70.02;98872.66;352493;113;1961874;-72
2021/04/05 03:18:52;;;;;;;17.67;10.71;;;;;;;1.73;70.11;98877.66;351401;113;1960735;-72
2021/04/05 03:19:59;;;;;;;17.68;11.28;;;;;;;1.70;70.09;98873.50;324505;113;2481796;-72
2021/04/05 03:21:07;;;;;;;19.41;11.89;;;;;;;1.71;70.44;98869.00;350850;114;1960778;-72
2021/04/05 03:22:13;;;;;;;21.01;11.49;;;;;;;1.71;70.52;98872.48;319752;115;2225748;-72
2021/04/05 03:23:21;;;;;;;16.48;9.76;;;;;;;1.78;70.55;98871.83;345850;115;1960717;-72
2021/04/05 03:24:27;;;;;;;18.62;10.09;;;;;;;1.83;70.50;98872.16;316654;115;2550891;-72
2021/04/05 03:25:32;;;;;;;15.57;9.23;;;;;;;1.90;70.45;98867.80;344421;115;1962958;-72
2021/04/05 03:26:38;;;;;;;18.06;9.64;;;;;;;1.95;70.26;98870.78;352158;113;1960986;-72
2021/04/05 03:27:45;;;;;;;15.63;9.60;;;;;;;2.03;70.04;98864.61;352033;113;1963014;-73
2021/04/05 03:28:50;;;;;;;13.99;8.73;;;;;;;2.07;69.94;98868.60;351624;113;1961999;-72
2021/04/05 03:29:59;;;;;;;16.34;8.98;;;;;;;2.11;69.87;98875.23;324392;113;2239994;-71
2021/04/05 03:31:18;;;;;;;15.13;9.46;;;;;;;2.16;69.78;98871.05;351510;113;1962025;-72
2021/04/05 03:32:26;;;;;;;18.56;10.11;;;;;;;2.19;69.58;98875.20;350683;115;1961984;-74
2021/04/05 03:33:47;;;;;;;15.63;8.72;;;;;;;2.14;69.51;98869.55;345308;115;1961946;-72
2021/04/05 03:34:57;;;;;;;17.93;10.02;;;;;;;2.07;69.64;98869.42;351355;115;1961975;-72
2021/04/05 03:36:15;;;;;;;14.46;8.98;;;;;;;2.01;69.74;98871.92;346374;115;1964002;-72
2021/04/05 03:37:23;;;;;;;14.86;10.16;;;;;;;1.95;69.87;98868.94;351709;113;1960605;-72
2021/04/05 03:38:28;;;;;;;19.83;10.57;;;;;;;1.91;69.70;98864.15;305696;113;2191342;-72
2021/04/05 03:39:34;;;;;;;15.37;10.16;;;;;;;1.88;69.73;98869.79;342220;115;1963955;-72
2021/04/05 03:40:43;;;;;;;17.98;11.27;;;;;;;1.83;69.81;98857.00;326153;116;2407023;-73
2021/04/05 03:42:06;;;;;;;19.99;12.11;;;;;;;1.78;69.84;98859.34;349272;114;1960830;-72
2021/04/05 03:43:37;;;;;;;18.44;12.14;;;;;;;1.75;70.12;98867.67;308912;114;2071669;-72
2021/04/05 03:45:05;;;;;;;18.61;11.73;;;;;;;1.73;70.01;98856.36;349841;112;1963999;-72
2021/04/05 03:46:20;;;;;;;16.67;9.78;;;;;;;1.70;70.22;98862.02;319698;111;1974378;-73
2021/04/05 03:47:35;;;;;;;17.99;10.04;;;;;;;1.73;70.28;98859.02;335673;112;1963058;-73
2021/04/05 03:49:04;;;;;;;15.02;8.81;;;;;;;1.78;70.25;98858.52;353982;112;1962109;-72
2021/04/05 03:50:22;;;;;;;16.17;9.17;;;;;;;1.87;70.12;98855.64;309430;113;2227950;-73
2021/04/05 03:51:35;;;;;;;15.40;9.06;;;;;;;2.01;70.08;98848.78;358854;110;1961975;-73
2021/04/05 03:52:46;;;;;;;13.67;8.18;;;;;;;2.15;69.70;98855.25;350438;113;1963457;-73
2021/04/05 03:53:58;;;;;;;14.62;9.06;;;;;;;2.28;69.28;98862.70;356923;111;1962006;-74
2021/04/05 03:55:06;;;;;;;14.69;8.81;;;;;;;2.41;69.13;98857.66;321616;113;1962946;-74
2021/04/05 03:56:17;;;;;;;16.92;9.73;;;;;;;2.52;68.75;98859.92;324363;110;1992495;-73
2021/04/05 03:57:26;;;;;;;14.08;9.18;;;;;;;2.59;68.55;98852.90;325264;110;1983976;-73
2021/04/05 03:58:33;;;;;;;16.11;10.53;;;;;;;2.61;68.39;98850.05;334993;112;2421019;-74
2021/04/05 03:59:43;;;;;;;16.40;9.39;;;;;;;2.62;68.21;98857.87;360104;110;1962000;-74
2021/04/05 04:00:53;;;;;;;17.28;10.06;;;;;;;2.63;68.14;98853.38;360623;110;1961860;-74
2021/04/05 04:02:05;;;;;;;19.56;11.07;;;;;;;2.63;67.97;98853.38;355867;114;1961781;-73
2021/04/05 04:03:12;;;;;;;;;;;;;;;2.62;67.86;98857.05;334072;115;2239001;-73
2021/04/05 04:04:30;;;;;;;16.19;10.59;;;;;;;2.61;67.82;98860.70;355178;114;1960942;-73
2021/04/05 04:06:53;;;;;;;17.32;10.39;;;;;;;2.61;67.71;98858.04;359233;112;1961920;-73
2021/04/05 04:09:06;;;;;;;16.84;10.09;;;;;;;2.62;67.60;98857.05;352233;113;1964920;-73
2021/04/05 04:10:15;;;;;;;17.41;10.56;;;;;;;2.62;67.50;98857.05;322680;113;2526936;-73
2021/04/05 04:11:27;;;;;;;17.04;10.52;;;;;;;2.63;67.41;98856.03;350758;113;1963011;-73
2021/04/05 04:12:34;;;;;;;16.97;10.92;;;;;;;2.64;67.31;98861.17;345888;113;1962006;-73
2021/04/05 04:13:44;;;;;;;17.28;10.84;;;;;;;2.65;67.16;98862.03;360271;111;1961992;-75
2021/04/05 04:14:50;;;;;;;18.82;11.51;;;;;;;2.66;67.00;98863.68;358645;111;1961964;-73
2021/04/05 04:15:56;;;;;;;19.45;11.70;;;;;;;2.64;67.12;98852.35;317106;112;2129782;-74
2021/04/05 04:17:06;;;;;;;20.16;11.76;;;;;;;2.63;67.11;98853.38;357289;110;1961952;-74
2021/04/05 04:18:11;;;;;;;19.85;12.81;;;;;;;2.59;67.20;98855.56;359903;110;1961889;-74
2021/04/05 04:19:17;;;;;;;18.73;12.24;;;;;;;2.55;67.28;98856.08;356044;113;1961901;-73
2021/04/05 04:20:25;;;;;;;24.38;13.31;;;;;;;2.54;67.53;98857.92;337998;112;2389138;-74
2021/04/05 04:21:31;;;;;;;17.98;12.31;;;;;;;2.54;67.68;98857.07;343989;116;1961979;-74
2021/04/05 04:22:37;;;;;;;16.35;11.18;;;;;;;2.54;67.70;98860.59;342722;114;1961060;-74
2021/04/05 04:23:44;;;;;;;22.08;13.03;;;;;;;2.54;67.58;98862.40;309464;113;2168246;-74
2021/04/05 04:24:52;;;;;;;22.22;16.19;;;;;;;2.42;67.46;98829.98;360326;110;1964975;-74
2021/04/05 04:25:58;;;;;;;21.20;13.29;;;;;;;2.54;67.48;98865.06;356376;112;1962067;-74
2021/04/05 04:27:06;;;;;;;21.53;13.91;;;;;;;2.52;67.70;98856.44;356377;113;1961008;-73
2021/04/05 04:28:15;;;;;;;20.33;12.97;;;;;;;2.50;67.79;98853.93;350956;115;1961841;-75
2021/04/05 04:29:22;;;;;;;21.07;11.58;;;;;;;2.49;67.75;98856.76;334693;114;1961997;-74
2021/04/05 04:30:32;;;;;;;18.04;11.45;;;;;;;2.47;67.75;98848.95;359934;110;1961974;-74
2021/04/05 04:31:39;;;;;;;17.06;11.48;;;;;;;2.46;67.92;98849.11;353296;115;1961998;-74
2021/04/05 04:32:45;;;;;;;16.58;10.54;;;;;;;2.42;68.01;98849.47;355680;111;1961975;-74
2021/04/05 04:33:50;;;;;;;15.92;10.90;;;;;;;2.44;67.86;98851.14;361865;112;1961981;-74
2021/04/05 04:34:56;;;;;;;18.77;11.13;;;;;;;2.44;67.83;98835.16;357958;110;1962019;-75
2021/04/05 04:36:11;;;;;;;19.57;10.93;;;;;;;2.44;67.97;98843.15;325578;115;2518012;-75
2021/04/05 04:37:17;;;;;;;22.46;12.28;;;;;;;2.46;67.91;98843.78;323821;113;2564006;-73
2021/04/05 04:38:24;;;;;;;17.37;10.43;;;;;;;2.49;68.05;98841.63;349918;114;1961924;-72
2021/04/05 04:39:31;;;;;;;16.73;10.74;;;;;;;2.52;68.15;98837.77;324398;114;2884999;-72
2021/04/05 04:40:38;;;;;;;16.40;9.71;;;;;;;2.54;67.98;98839.27;352914;113;1962027;-72
2021/04/05 04:41:47;;;;;;;19.51;10.81;;;;;;;2.57;67.96;98838.91;310112;113;2870912;-73
2021/04/05 04:42:58;;;;;;;17.23;9.91;;;;;;;2.60;67.82;98827.89;354520;113;1963052;-72
2021/04/05 04:44:05;;;;;;;18.39;10.63;;;;;;;2.65;67.72;98832.70;307648;113;2200378;-73
2021/04/05 04:45:11;;;;;;;17.68;10.74;;;;;;;2.70;67.66;98833.01;351829;113;1965022;-73
2021/04/05 04:46:18;;;;;;;15.13;9.02;;;;;;;2.75;67.45;98833.31;322434;115;2509041;-72
2021/04/05 04:47:23;;;;;;;13.75;9.10;;;;;;;2.79;67.17;98831.11;331376;113;1961712;-72
2021/04/05 04:48:29;;;;;;;17.67;9.81;;;;;;;2.83;67.05;98829.73;355169;113;1962951;-72
2021/04/05 04:49:34;;;;;;;18.74;11.27;;;;;;;2.85;66.94;98828.55;355242;113;1961984;-73
2021/04/05 04:50:41;;;;;;;25.47;14.23;;;;;;;2.90;66.91;98824.54;353292;113;1961952;-72
2021/04/05 04:51:46;;;;;;;18.00;10.62;;;;;;;2.93;67.08;98827.67;318123;113;2005303;-73
2021/04/05 04:52:53;;;;;;;15.99;9.33;;;;;;;2.96;67.08;98819.30;354373;111;1962067;-73
2021/04/05 04:54:01;;;;;;;17.58;11.22;;;;;;;2.99;66.84;98820.79;353162;113;1963912;-73
2021/04/05 04:55:08;;;;;;;17.54;9.53;;;;;;;2.99;66.60;98820.79;353293;113;1961976;-73
2021/04/05 04:56:15;;;;;;;18.60;10.12;;;;;;;3.02;66.48;98815.95;326455;114;2229038;-73
2021/04/05 04:57:21;;;;;;;12.97;8.98;;;;;;;3.03;66.35;98824.78;353899;112;1961959;-72
2021/04/05 04:58:26;;;;;;;18.56;10.78;;;;;;;3.03;66.20;98828.27;354422;114;1961929;-72
2021/04/05 04:59:33;;;;;;;20.14;10.81;;;;;;;3.03;66.21;98825.59;340044;117;1961946;-73
2021/04/05 05:00:39;;;;;;;18.16;9.97;;;;;;;3.00;66.37;98822.47;353627;114;1963005;-72
2021/04/05 05:01:46;;;;;;;18.19;11.62;;;;;;;2.96;66.43;98826.48;339740;117;1961984;-72
2021/04/05 05:02:54;;;;;;;17.12;10.01;;;;;;;2.93;66.64;98825.00;357479;113;1961953;-74
2021/04/05 05:04:04;;;;;;;17.83;10.16;;;;;;;2.91;66.78;98818.19;356882;111;1961971;-73
2021/04/05 05:05:11;;;;;;;16.28;9.20;;;;;;;2.91;67.00;98820.84;354951;113;1962024;-74
2021/04/05 05:06:21;;;;;;;17.62;10.36;;;;;;;2.89;66.76;98812.22;354622;113;1962982;-73
2021/04/05 05:07:27;;;;;;;14.50;9.09;;;;;;;2.85;66.97;98820.55;356192;113;1961950;-73
2021/04/05 05:08:33;;;;;;;15.26;9.69;;;;;;;2.82;66.89;98820.91;357192;113;1961995;-73
2021/04/05 05:09:40;;;;;;;13.69;8.98;;;;;;;2.81;67.10;98815.77;318589;111;2065561;-73
2021/04/05 05:10:47;;;;;;;15.80;9.21;;;;;;;2.80;67.04;98820.25;355762;111;1962006;-73
2021/04/05 05:11:54;;;;;;;14.42;8.61;;;;;;;2.82;67.04;98817.42;315149;111;2914946;-74